createdAt,value
2022-11-16T00:00:10.858Z,2.43
2022-11-16T00:03:04.072Z,2.42
2022-11-16T00:05:32.730Z,2.42
2022-11-16T00:08:03.519Z,2.41
2022-11-16T00:10:32.071Z,2.38
2022-11-16T00:13:00.667Z,2.37
2022-11-16T00:15:29.341Z,2.36
2022-11-16T00:17:57.837Z,2.33
2022-11-16T00:20:26.462Z,2.29
2022-11-16T00:22:55.025Z,2.28
2022-11-16T00:25:23.621Z,2.26
2022-11-16T00:27:52.259Z,2.26
2022-11-16T00:30:20.903Z,2.28
2022-11-16T00:32:49.463Z,2.24
2022-11-16T00:35:17.928Z,2.14
2022-11-16T00:37:46.383Z,2.11
2022-11-16T00:40:16.302Z,2.10
2022-11-16T00:42:45.062Z,2.07
2022-11-16T00:45:13.928Z,2.06
2022-11-16T00:47:43.009Z,2.07
2022-11-16T00:50:11.509Z,2.07
2022-11-16T00:52:40.074Z,2.07
2022-11-16T00:55:10.042Z,2.00
2022-11-16T00:57:38.603Z,1.97
2022-11-16T01:00:09.310Z,1.99
2022-11-16T01:02:38.046Z,2.07
2022-11-16T01:05:09.655Z,2.09
2022-11-16T01:07:40.288Z,2.11
2022-11-16T01:10:13.204Z,2.15
2022-11-16T01:12:47.010Z,2.14
2022-11-16T01:15:19.093Z,2.14
2022-11-16T01:17:47.928Z,2.14
2022-11-16T01:20:20.146Z,2.15
2022-11-16T01:22:49.018Z,2.17
2022-11-16T01:25:17.883Z,2.16
2022-11-16T01:27:46.992Z,2.15
2022-11-16T01:30:22.075Z,2.15
2022-11-16T01:33:06.415Z,2.13
2022-11-16T01:35:35.551Z,2.14
2022-11-16T01:38:05.210Z,2.16
2022-11-16T01:40:36.680Z,2.19
2022-11-16T01:43:22.123Z,2.20
2022-11-16T01:45:51.588Z,2.15
2022-11-16T01:48:26.320Z,2.14
2022-11-16T01:50:57.488Z,2.15
2022-11-16T01:53:26.296Z,2.14
2022-11-16T01:55:57.649Z,2.15
2022-11-16T01:58:35.841Z,2.16
2022-11-16T02:01:15.148Z,2.18
2022-11-16T02:03:52.227Z,2.21
2022-11-16T02:06:50.058Z,2.18
2022-11-16T02:09:55.931Z,2.21
2022-11-16T02:13:12.992Z,2.16
2022-11-16T02:15:55.978Z,2.18
2022-11-16T02:19:00.137Z,2.28
2022-11-16T02:22:19.026Z,2.36
2022-11-16T02:25:39.272Z,2.38
2022-11-16T02:28:44.742Z,2.38
2022-11-16T02:31:19.765Z,2.41
2022-11-16T02:33:50.690Z,2.46
2022-11-16T02:36:23.955Z,2.45
2022-11-16T02:39:10.736Z,2.42
2022-11-16T02:41:43.072Z,2.45
2022-11-16T02:44:24.230Z,2.47
2022-11-16T02:47:00.352Z,2.49
2022-11-16T02:49:33.225Z,2.48
2022-11-16T02:52:02.715Z,2.50
2022-11-16T02:54:31.756Z,2.51
2022-11-16T02:57:03.543Z,2.55
2022-11-16T02:59:47.369Z,2.61
2022-11-16T03:02:34.237Z,2.61
2022-11-16T03:05:10.441Z,2.69
2022-11-16T03:07:59.634Z,2.76
2022-11-16T03:10:48.261Z,2.76
2022-11-16T03:13:18.951Z,2.74
2022-11-16T03:15:50.240Z,2.76
2022-11-16T03:18:21.053Z,2.82
2022-11-16T03:20:57.150Z,2.82
2022-11-16T03:23:28.015Z,2.85
2022-11-16T03:25:58.455Z,2.91
2022-11-16T03:28:41.686Z,2.86
2022-11-16T03:31:27.174Z,2.85
2022-11-16T03:34:04.064Z,2.89
2022-11-16T03:36:40.827Z,2.94
2022-11-16T03:39:17.707Z,2.99
2022-11-16T03:41:50.157Z,3.07
2022-11-16T03:44:21.487Z,3.14
2022-11-16T03:46:50.365Z,3.20
2022-11-16T03:49:22.833Z,3.18
2022-11-16T03:51:53.613Z,3.17
2022-11-16T03:54:22.477Z,3.07
2022-11-16T03:56:51.288Z,3.10
2022-11-16T03:59:20.062Z,3.06
2022-11-16T04:01:48.885Z,3.09
2022-11-16T04:04:35.957Z,3.15
2022-11-16T04:07:23.917Z,3.15
2022-11-16T04:10:11.076Z,3.22
2022-11-16T04:13:02.866Z,3.31
2022-11-16T04:15:50.515Z,3.36
2022-11-16T04:18:37.517Z,3.40
2022-11-16T04:21:28.201Z,3.41
2022-11-16T04:24:12.357Z,3.43
2022-11-16T04:27:08.395Z,3.47
2022-11-16T04:29:38.171Z,3.43
2022-11-16T04:32:28.025Z,3.45
2022-11-16T04:35:15.851Z,3.45
2022-11-16T04:37:53.115Z,3.39
2022-11-16T04:40:29.746Z,3.40
2022-11-16T04:43:04.780Z,3.44
2022-11-16T04:45:58.114Z,3.41
2022-11-16T04:48:36.503Z,3.42
2022-11-16T04:51:05.858Z,3.47
2022-11-16T04:53:34.955Z,3.46
2022-11-16T04:56:09.650Z,3.33
2022-11-16T04:58:39.458Z,3.34
2022-11-16T05:01:08.339Z,3.39
2022-11-16T05:03:37.775Z,3.40
2022-11-16T05:06:07.280Z,3.39
2022-11-16T05:08:36.510Z,3.35
2022-11-16T05:11:06.101Z,3.33
2022-11-16T05:13:38.311Z,3.39
2022-11-16T05:16:09.653Z,3.42
2022-11-16T05:18:39.332Z,3.37
2022-11-16T05:21:11.529Z,3.44
2022-11-16T05:23:58.839Z,3.51
2022-11-16T05:26:30.973Z,3.60
2022-11-16T05:28:59.645Z,3.61
2022-11-16T05:31:28.422Z,3.66
2022-11-16T05:33:57.340Z,3.67
2022-11-16T05:36:26.238Z,3.71
2022-11-16T05:38:56.342Z,3.69
2022-11-16T05:41:27.788Z,3.68
2022-11-16T05:43:56.582Z,3.70
2022-11-16T05:46:26.100Z,3.70
2022-11-16T05:48:55.704Z,3.64
2022-11-16T05:51:24.577Z,3.63
2022-11-16T05:53:53.979Z,3.59
2022-11-16T05:56:24.606Z,3.61
2022-11-16T05:58:54.875Z,3.56
2022-11-16T06:01:25.217Z,3.62
2022-11-16T06:03:54.333Z,3.62
2022-11-16T06:06:23.137Z,3.62
2022-11-16T06:08:52.462Z,3.62
2022-11-16T06:11:30.158Z,3.59
2022-11-16T06:14:02.096Z,3.63
2022-11-16T06:16:31.186Z,3.69
2022-11-16T06:19:01.057Z,3.66
2022-11-16T06:21:30.631Z,3.71
2022-11-16T06:24:00.256Z,3.79
2022-11-16T06:26:30.361Z,3.78
2022-11-16T06:29:18.341Z,3.71
2022-11-16T06:31:47.380Z,3.76
2022-11-16T06:34:16.599Z,3.76
2022-11-16T06:36:45.617Z,3.75
2022-11-16T06:39:15.130Z,3.75
2022-11-16T06:41:44.142Z,3.70
2022-11-16T06:44:13.185Z,3.76
2022-11-16T06:46:47.881Z,3.80
2022-11-16T06:49:16.779Z,3.84
2022-11-16T06:51:46.110Z,3.83
2022-11-16T06:54:15.232Z,3.82
2022-11-16T06:56:45.176Z,3.87
2022-11-16T06:59:14.045Z,3.87
2022-11-16T07:01:43.954Z,3.92
2022-11-16T07:04:14.329Z,3.95
2022-11-16T07:06:45.504Z,4.04
2022-11-16T07:09:15.696Z,4.06
2022-11-16T07:11:45.268Z,4.08
2022-11-16T07:14:15.867Z,4.13
2022-11-16T07:16:45.108Z,4.14
2022-11-16T07:19:14.070Z,4.14
2022-11-16T07:21:43.244Z,4.19
2022-11-16T07:24:15.888Z,4.21
2022-11-16T07:26:44.690Z,4.23
2022-11-16T07:29:17.585Z,4.26
2022-11-16T07:32:03.878Z,4.31
2022-11-16T07:34:52.407Z,4.29
2022-11-16T07:37:21.471Z,4.27
2022-11-16T07:39:50.123Z,4.26
2022-11-16T07:42:19.475Z,4.29
2022-11-16T07:45:43.910Z,4.33
2022-11-16T07:48:12.728Z,4.33
2022-11-16T07:51:24.906Z,4.40
2022-11-16T07:54:15.746Z,4.38
2022-11-16T07:56:44.687Z,4.42
2022-11-16T07:59:13.300Z,4.43
2022-11-16T08:01:47.590Z,4.43
2022-11-16T08:04:17.742Z,4.49
2022-11-16T08:06:47.132Z,4.47
2022-11-16T08:09:15.996Z,4.46
2022-11-16T08:11:44.869Z,4.53
2022-11-16T08:14:16.075Z,4.60
2022-11-16T08:16:44.845Z,4.64
2022-11-16T08:19:15.288Z,4.68
2022-11-16T08:21:45.873Z,4.77
2022-11-16T08:24:14.818Z,4.84
2022-11-16T08:26:44.383Z,4.88
2022-11-16T08:29:15.775Z,4.91
2022-11-16T08:31:49.231Z,5.01
2022-11-16T08:34:20.155Z,5.10
2022-11-16T08:36:52.311Z,5.18
2022-11-16T08:39:24.542Z,5.19
2022-11-16T08:41:53.663Z,5.24
2022-11-16T08:44:22.563Z,5.28
2022-11-16T08:46:54.151Z,5.30
2022-11-16T08:49:49.656Z,5.48
2022-11-16T08:52:20.250Z,5.52
2022-11-16T08:54:49.283Z,5.51
2022-11-16T08:57:18.379Z,5.58
2022-11-16T08:59:48.900Z,5.65
2022-11-16T09:02:25.618Z,5.79
2022-11-16T09:04:55.016Z,5.88
2022-11-16T09:07:23.813Z,5.98
2022-11-16T09:09:52.547Z,6.02
2022-11-16T09:12:21.207Z,6.06
2022-11-16T09:14:51.411Z,6.17
2022-11-16T09:17:23.157Z,6.28
2022-11-16T09:19:52.376Z,6.42
2022-11-16T09:22:21.280Z,6.45
2022-11-16T09:24:50.036Z,6.48
2022-11-16T09:27:19.035Z,6.50
2022-11-16T09:29:47.923Z,6.45
2022-11-16T09:32:16.590Z,6.54
2022-11-16T09:34:45.651Z,6.50
2022-11-16T09:37:15.484Z,6.50
2022-11-16T09:39:44.094Z,6.62
2022-11-16T09:42:38.395Z,6.70
2022-11-16T09:45:39.248Z,6.74
2022-11-16T09:48:13.948Z,6.81
2022-11-16T09:50:45.274Z,6.86
2022-11-16T09:53:36.106Z,6.79
2022-11-16T09:56:39.816Z,6.74
2022-11-16T09:59:09.441Z,6.71
2022-11-16T10:02:02.315Z,6.73
2022-11-16T10:04:56.659Z,6.67
2022-11-16T10:07:37.572Z,6.63
2022-11-16T10:10:16.456Z,6.77
2022-11-16T10:13:20.092Z,6.89
2022-11-16T10:16:12.061Z,7.05
2022-11-16T10:19:11.013Z,7.18
2022-11-16T10:22:02.149Z,7.09
2022-11-16T10:25:22.529Z,7.11
2022-11-16T10:28:18.830Z,7.42
2022-11-16T10:30:58.997Z,7.35
2022-11-16T10:33:35.955Z,7.41
2022-11-16T10:36:13.522Z,7.41
2022-11-16T10:38:44.581Z,7.37
2022-11-16T10:41:42.851Z,7.37
2022-11-16T10:45:08.581Z,7.42
2022-11-16T10:47:51.493Z,7.36
2022-11-16T10:50:46.419Z,7.13
2022-11-16T10:54:00.494Z,7.08
2022-11-16T10:56:40.681Z,6.95
2022-11-16T10:59:20.217Z,6.88
2022-11-16T11:01:53.421Z,6.82
2022-11-16T11:04:31.780Z,6.89
2022-11-16T11:07:30.166Z,6.87
2022-11-16T11:09:59.184Z,6.79
2022-11-16T11:12:40.594Z,6.71
2022-11-16T11:15:12.522Z,6.65
2022-11-16T11:17:45.605Z,6.64
2022-11-16T11:20:17.160Z,6.62
2022-11-16T11:22:59.251Z,6.59
2022-11-16T11:25:37.446Z,6.67
2022-11-16T11:28:34.177Z,6.73
2022-11-16T11:31:26.200Z,6.82
2022-11-16T11:34:30.892Z,6.92
2022-11-16T11:37:03.072Z,6.96
2022-11-16T11:39:37.385Z,6.93
2022-11-16T11:42:15.224Z,7.02
2022-11-16T11:44:50.731Z,7.11
2022-11-16T11:48:35.870Z,7.17
2022-11-16T11:51:30.164Z,7.26
2022-11-16T11:54:02.603Z,7.28
2022-11-16T11:56:34.312Z,7.31
2022-11-16T11:59:05.393Z,7.34
2022-11-16T12:02:04.598Z,7.31
2022-11-16T12:04:58.204Z,7.41
2022-11-16T12:07:57.636Z,7.48
2022-11-16T12:10:52.976Z,7.53
2022-11-16T12:13:51.295Z,7.47
2022-11-16T12:16:54.258Z,7.45
2022-11-16T12:20:06.031Z,7.45
2022-11-16T12:22:45.461Z,7.35
2022-11-16T12:25:51.369Z,7.39
2022-11-16T12:28:46.026Z,7.34
2022-11-16T12:31:24.857Z,7.32
2022-11-16T12:34:33.952Z,7.27
2022-11-16T12:37:15.546Z,7.30
2022-11-16T12:40:23.827Z,7.27
2022-11-16T12:43:04.305Z,7.33
2022-11-16T12:46:10.773Z,7.41
2022-11-16T12:49:44.271Z,7.43
2022-11-16T12:52:39.951Z,7.43
2022-11-16T12:55:28.127Z,7.43
2022-11-16T12:58:06.656Z,7.42
2022-11-16T13:01:37.005Z,7.38
2022-11-16T13:04:16.439Z,7.38
2022-11-16T13:06:58.799Z,7.32
2022-11-16T13:09:34.254Z,7.26
2022-11-16T13:12:14.349Z,7.18
2022-11-16T13:14:54.313Z,7.15
2022-11-16T13:17:28.848Z,7.11
2022-11-16T13:20:48.928Z,7.15
2022-11-16T13:24:07.569Z,7.20
2022-11-16T13:26:46.850Z,7.24
2022-11-16T13:29:43.959Z,7.21
2022-11-16T13:33:04.004Z,7.20
2022-11-16T13:35:38.009Z,7.15
2022-11-16T13:38:13.651Z,7.09
2022-11-16T13:40:42.284Z,7.00
2022-11-16T13:43:10.913Z,6.99
2022-11-16T13:45:49.984Z,6.93
2022-11-16T13:48:34.794Z,6.89
2022-11-16T13:51:08.523Z,6.88
2022-11-16T13:56:52.089Z,6.80
2022-11-16T13:59:30.917Z,6.74
2022-11-16T14:02:22.275Z,6.69
2022-11-16T14:05:12.702Z,6.63
2022-11-16T14:07:45.238Z,6.55
2022-11-16T14:10:36.169Z,6.47
2022-11-16T14:13:26.401Z,6.41
2022-11-16T14:16:19.956Z,6.39
2022-11-16T14:19:02.197Z,6.34
2022-11-16T14:22:23.978Z,6.30
2022-11-16T14:25:02.421Z,6.25
2022-11-16T14:28:06.930Z,6.22
2022-11-16T14:30:59.352Z,6.17
2022-11-16T14:33:37.763Z,6.17
2022-11-16T14:36:10.036Z,6.14
2022-11-16T14:38:42.386Z,6.16
2022-11-16T14:41:22.786Z,6.15
2022-11-16T14:43:55.828Z,6.16
2022-11-16T14:46:35.727Z,6.16
2022-11-16T14:49:05.240Z,6.15
2022-11-16T14:51:44.344Z,6.14
2022-11-16T14:54:42.649Z,6.13
2022-11-16T14:57:21.808Z,6.11
2022-11-16T15:00:18.585Z,6.14
2022-11-16T15:02:54.368Z,6.21
2022-11-16T15:05:33.532Z,6.20
2022-11-16T15:08:08.043Z,6.19
2022-11-16T15:10:37.060Z,6.18
2022-11-16T15:13:06.093Z,6.17
2022-11-16T15:15:34.833Z,6.16
2022-11-16T15:18:03.457Z,6.13
2022-11-16T15:20:39.560Z,6.08
2022-11-16T15:23:15.263Z,6.04
2022-11-16T15:25:56.539Z,6.01
2022-11-16T15:28:28.431Z,5.97
2022-11-16T15:31:06.776Z,5.94
2022-11-16T15:33:43.037Z,5.93
2022-11-16T15:36:39.562Z,5.92
2022-11-16T15:39:24.142Z,5.88
2022-11-16T15:42:00.466Z,5.85
2022-11-16T15:44:33.383Z,5.83
2022-11-16T15:47:03.647Z,5.78
2022-11-16T15:49:37.573Z,5.73
2022-11-16T15:52:06.918Z,5.68
2022-11-16T15:54:54.896Z,5.65
2022-11-16T15:57:25.371Z,5.62
2022-11-16T15:59:57.251Z,5.58
2022-11-16T16:02:30.597Z,5.55
2022-11-16T16:04:59.077Z,5.54
2022-11-16T16:07:44.199Z,5.54
2022-11-16T16:10:18.964Z,5.54
2022-11-16T16:12:56.255Z,5.52
2022-11-16T16:15:37.750Z,5.46
2022-11-16T16:18:37.026Z,5.43
2022-11-16T16:21:05.669Z,5.33
2022-11-16T16:23:45.809Z,5.28
2022-11-16T16:26:16.838Z,5.25
2022-11-16T16:28:49.020Z,5.24
2022-11-16T16:31:19.133Z,5.23
2022-11-16T16:33:47.907Z,5.20
2022-11-16T16:36:17.230Z,5.16
2022-11-16T16:38:45.855Z,5.12
2022-11-16T16:41:24.536Z,5.07
2022-11-16T16:43:53.656Z,5.03
2022-11-16T16:46:23.390Z,4.96
2022-11-16T16:48:55.100Z,4.87
2022-11-16T16:51:24.009Z,4.82
2022-11-16T16:53:52.746Z,4.79
2022-11-16T16:56:21.502Z,4.75
2022-11-16T16:59:17.561Z,4.70
2022-11-16T17:01:47.783Z,4.64
2022-11-16T17:04:17.090Z,4.61
2022-11-16T17:06:49.247Z,4.59
2022-11-16T17:09:17.959Z,4.58
2022-11-16T17:11:49.549Z,4.58
2022-11-16T17:14:19.985Z,4.55
2022-11-16T17:16:48.453Z,4.53
2022-11-16T17:19:19.787Z,4.53
2022-11-16T17:21:51.084Z,4.52
2022-11-16T17:24:20.235Z,4.49
2022-11-16T17:26:48.728Z,4.44
2022-11-16T17:29:20.243Z,4.40
2022-11-16T17:31:49.134Z,4.34
2022-11-16T17:34:18.869Z,4.26
2022-11-16T17:36:48.851Z,4.24
2022-11-16T17:39:18.298Z,4.23
2022-11-16T17:41:50.524Z,4.21
2022-11-16T17:44:22.010Z,4.24
2022-11-16T17:47:37.185Z,4.26
2022-11-16T17:54:19.451Z,4.30
2022-11-16T17:56:49.115Z,4.23
2022-11-16T17:59:19.069Z,4.22
2022-11-16T18:14:01.621Z,4.52
2022-11-16T18:16:34.716Z,4.36
2022-11-16T18:19:07.562Z,4.30
2022-11-16T18:22:01.387Z,4.27
2022-11-16T18:24:30.560Z,4.16
2022-11-16T18:26:59.380Z,4.11
2022-11-16T18:29:30.503Z,4.06
2022-11-16T18:32:01.889Z,4.05
2022-11-16T18:34:30.714Z,4.00
2022-11-16T18:36:59.625Z,3.91
2022-11-16T18:39:56.659Z,3.87
2022-11-16T18:42:32.224Z,3.71
2022-11-16T18:45:11.572Z,3.67
2022-11-16T18:47:41.217Z,3.62
2022-11-16T18:50:18.216Z,3.56
2022-11-16T18:52:50.904Z,3.50
2022-11-16T18:55:24.021Z,3.44
2022-11-16T18:57:53.676Z,3.40
2022-11-16T19:00:49.753Z,3.37
2022-11-16T19:03:18.469Z,3.32
2022-11-16T19:06:07.614Z,3.27
2022-11-16T19:08:42.722Z,3.17
2022-11-16T19:11:17.172Z,3.20
2022-11-16T19:14:06.943Z,3.15
2022-11-16T19:16:50.014Z,3.06
2022-11-16T19:19:22.375Z,2.95
2022-11-16T19:21:52.317Z,2.83
2022-11-16T19:26:40.461Z,2.62
2022-11-16T19:29:09.988Z,2.59
2022-11-16T19:31:38.670Z,2.52
2022-11-16T19:34:13.327Z,2.44
2022-11-16T19:39:35.276Z,2.30
2022-11-16T19:42:04.213Z,2.20
2022-11-16T19:44:33.555Z,2.14
2022-11-16T19:47:03.214Z,2.18
2022-11-16T19:49:35.704Z,2.21
2022-11-16T19:52:05.877Z,2.17
2022-11-16T19:54:34.842Z,2.15
2022-11-16T19:57:04.064Z,2.13
2022-11-16T19:59:33.053Z,2.10
2022-11-16T20:02:02.092Z,2.10
2022-11-16T20:04:34.787Z,2.09
2022-11-16T20:07:03.815Z,2.15
2022-11-16T20:09:32.746Z,2.21
2022-11-16T20:12:01.893Z,2.28
2022-11-16T20:14:30.765Z,2.25
2022-11-16T20:16:59.824Z,2.32
2022-11-16T20:19:28.391Z,2.22
2022-11-16T20:22:01.022Z,2.26
2022-11-16T20:24:29.692Z,2.21
2022-11-16T20:27:01.375Z,2.26
2022-11-16T20:29:29.989Z,2.30
2022-11-16T20:31:58.730Z,2.26
2022-11-16T20:34:27.478Z,2.26
2022-11-16T20:36:56.834Z,2.16
2022-11-16T20:39:28.782Z,2.22
2022-11-16T20:42:03.069Z,2.20
2022-11-16T20:44:32.799Z,2.22
2022-11-16T20:47:02.542Z,2.32
2022-11-16T20:49:31.614Z,2.38
2022-11-16T20:52:00.530Z,2.43
2022-11-16T20:54:33.798Z,2.50
2022-11-16T20:57:04.972Z,2.53
2022-11-16T20:59:35.874Z,2.49
2022-11-16T21:02:04.560Z,2.54
2022-11-16T21:04:33.372Z,2.52
2022-11-16T21:07:02.148Z,2.48
2022-11-16T21:09:50.840Z,2.48
2022-11-16T21:12:42.930Z,2.40
2022-11-16T21:15:12.290Z,2.39
2022-11-16T21:17:42.124Z,2.36
2022-11-16T21:20:26.797Z,2.25
2022-11-16T21:22:56.515Z,2.18
2022-11-16T21:25:25.120Z,2.26
2022-11-16T21:27:54.687Z,2.24
2022-11-16T21:30:23.320Z,2.25
2022-11-16T21:32:52.021Z,2.25
2022-11-16T21:35:21.246Z,2.26
2022-11-16T21:37:49.832Z,2.13
2022-11-16T21:40:21.631Z,2.05
2022-11-16T21:42:52.280Z,1.98
2022-11-16T21:45:20.999Z,2.06
2022-11-16T21:47:50.811Z,2.09
2022-11-16T21:50:34.760Z,1.96
2022-11-16T21:53:04.373Z,1.91
2022-11-16T21:55:33.783Z,1.87
2022-11-16T21:58:05.456Z,1.84
2022-11-16T22:00:34.026Z,1.84
2022-11-16T22:03:02.606Z,1.90
2022-11-16T22:05:50.070Z,1.92
2022-11-16T22:08:18.675Z,1.85
2022-11-16T22:10:53.680Z,1.86
2022-11-16T22:13:22.446Z,1.88
2022-11-16T22:15:51.079Z,1.86
2022-11-16T22:18:19.725Z,1.83
2022-11-16T22:20:49.906Z,1.86
2022-11-16T22:23:23.122Z,1.83
2022-11-16T22:26:15.018Z,1.82
2022-11-16T22:28:43.544Z,1.84
2022-11-16T22:31:14.965Z,1.85
2022-11-16T22:33:43.593Z,1.92
2022-11-16T22:36:13.444Z,1.89
2022-11-16T22:38:42.013Z,1.88
2022-11-16T22:41:10.763Z,1.95
2022-11-16T22:43:39.688Z,1.96
2022-11-16T22:46:09.803Z,1.99
2022-11-16T22:48:53.434Z,1.98
2022-11-16T22:51:30.624Z,2.09
2022-11-16T22:54:05.853Z,2.12
2022-11-16T22:56:34.403Z,2.01
2022-11-16T22:59:03.106Z,2.02
2022-11-16T23:01:32.914Z,2.11
2022-11-16T23:04:01.635Z,2.09
2022-11-16T23:06:30.261Z,2.09
2022-11-16T23:08:59.107Z,2.00
2022-11-16T23:11:46.576Z,1.91
2022-11-16T23:14:36.015Z,1.83
2022-11-16T23:17:05.000Z,1.80
2022-11-16T23:19:53.363Z,1.78
2022-11-16T23:22:40.814Z,1.74
2022-11-16T23:25:30.926Z,1.75
2022-11-16T23:28:07.046Z,1.71
2022-11-16T23:30:37.655Z,1.72
2022-11-16T23:33:06.887Z,1.71
2022-11-16T23:35:35.528Z,1.79
2022-11-16T23:38:07.885Z,1.78
2022-11-16T23:40:43.734Z,1.84
2022-11-16T23:43:35.704Z,1.81
2022-11-16T23:46:05.178Z,1.83
2022-11-16T23:48:33.705Z,1.89
2022-11-16T23:51:02.264Z,1.94
2022-11-16T23:53:30.895Z,1.96
2022-11-16T23:56:05.776Z,1.89
2022-11-16T23:58:35.150Z,1.85
